createdAt,value
2022-10-28T00:01:25.040Z,12.35
2022-10-28T00:03:58.953Z,12.31
2022-10-28T00:06:31.217Z,12.38
2022-10-28T00:08:59.080Z,12.46
2022-10-28T00:11:31.712Z,12.52
2022-10-28T00:14:05.817Z,12.61
2022-10-28T00:16:37.061Z,12.55
2022-10-28T00:19:07.737Z,12.53
2022-10-28T00:21:38.558Z,12.44
2022-10-28T00:24:08.399Z,12.34
2022-10-28T00:26:39.037Z,12.30
2022-10-28T00:29:13.194Z,12.26
2022-10-28T00:31:41.281Z,12.35
2022-10-28T00:34:17.394Z,12.39
2022-10-28T00:36:47.077Z,12.39
2022-10-28T00:39:22.583Z,12.39
2022-10-28T00:42:03.742Z,12.33
2022-10-28T00:44:47.312Z,12.27
2022-10-28T00:47:31.808Z,12.21
2022-10-28T00:50:16.858Z,12.10
2022-10-28T00:52:47.516Z,12.05
2022-10-28T00:55:18.056Z,12.06
2022-10-28T00:57:46.763Z,12.08
2022-10-28T01:00:15.214Z,12.12
2022-10-28T01:02:48.725Z,12.18
2022-10-28T01:05:23.274Z,12.21
2022-10-28T01:07:53.585Z,12.14
2022-10-28T01:10:34.101Z,12.12
2022-10-28T01:13:29.761Z,12.17
2022-10-28T01:17:08.848Z,12.13
2022-10-28T01:20:25.641Z,12.03
2022-10-28T01:23:11.133Z,12.12
2022-10-28T01:26:38.254Z,12.01
2022-10-28T01:29:35.579Z,12.05
2022-10-28T01:32:10.817Z,12.04
2022-10-28T01:35:19.456Z,11.92
2022-10-28T01:37:58.869Z,11.98
2022-10-28T01:41:19.275Z,12.03
2022-10-28T01:44:01.394Z,12.01
2022-10-28T01:47:00.454Z,11.92
2022-10-28T01:50:07.081Z,11.84
2022-10-28T01:52:34.803Z,11.93
2022-10-28T01:55:36.315Z,11.93
2022-10-28T01:58:06.560Z,11.80
2022-10-28T02:00:36.176Z,11.74
2022-10-28T02:03:07.073Z,11.73
2022-10-28T02:05:46.847Z,11.74
2022-10-28T02:08:19.643Z,11.68
2022-10-28T02:11:12.053Z,11.63
2022-10-28T02:14:55.233Z,11.62
2022-10-28T02:18:18.256Z,11.59
2022-10-28T02:21:06.573Z,11.59
2022-10-28T02:24:17.904Z,11.57
2022-10-28T02:27:02.789Z,11.52
2022-10-28T02:29:49.009Z,11.43
2022-10-28T02:32:25.085Z,11.44
2022-10-28T02:34:59.518Z,11.39
2022-10-28T02:37:36.222Z,11.38
2022-10-28T02:40:12.279Z,11.36
2022-10-28T02:42:54.389Z,11.31
2022-10-28T02:45:46.744Z,11.35
2022-10-28T02:48:26.696Z,11.32
2022-10-28T02:51:11.044Z,11.32
2022-10-28T02:54:10.932Z,11.27
2022-10-28T02:57:01.462Z,11.23
2022-10-28T02:59:29.559Z,11.17
2022-10-28T03:01:56.931Z,11.16
2022-10-28T03:04:24.449Z,11.19
2022-10-28T03:06:51.796Z,11.20
2022-10-28T03:09:19.029Z,11.16
2022-10-28T03:11:46.257Z,11.17
2022-10-28T03:14:15.411Z,11.31
2022-10-28T03:16:43.087Z,11.23
2022-10-28T03:19:10.313Z,11.25
2022-10-28T03:21:37.567Z,11.26
2022-10-28T03:24:05.158Z,11.33
2022-10-28T03:26:32.378Z,11.27
2022-10-28T03:28:59.668Z,11.31
2022-10-28T03:31:26.974Z,11.28
2022-10-28T03:33:54.235Z,11.21
2022-10-28T03:36:21.474Z,11.21
2022-10-28T03:38:48.823Z,11.26
2022-10-28T03:41:16.249Z,11.26
2022-10-28T03:43:43.580Z,11.14
2022-10-28T03:46:10.861Z,11.15
2022-10-28T03:48:38.073Z,11.15
2022-10-28T03:51:05.626Z,11.10
2022-10-28T03:53:32.969Z,11.09
2022-10-28T03:56:02.807Z,11.05
2022-10-28T03:58:30.555Z,11.11
2022-10-28T04:00:58.024Z,11.05
2022-10-28T04:03:26.745Z,11.08
2022-10-28T04:05:54.733Z,11.09
2022-10-28T04:08:22.398Z,11.06
2022-10-28T04:10:49.784Z,11.06
2022-10-28T04:13:17.698Z,11.04
2022-10-28T04:15:45.065Z,11.19
2022-10-28T04:18:12.914Z,11.26
2022-10-28T04:20:40.551Z,11.23
2022-10-28T04:23:09.425Z,11.24
2022-10-28T04:25:36.611Z,11.29
2022-10-28T04:28:04.140Z,11.23
2022-10-28T04:30:31.423Z,11.10
2022-10-28T04:32:58.790Z,11.08
2022-10-28T04:35:26.394Z,11.10
2022-10-28T04:37:54.043Z,11.13
2022-10-28T04:40:21.499Z,11.08
2022-10-28T04:42:48.606Z,11.03
2022-10-28T04:45:15.961Z,11.05
2022-10-28T04:47:43.153Z,11.07
2022-10-28T04:50:10.425Z,11.08
2022-10-28T04:52:37.566Z,11.07
2022-10-28T04:55:05.425Z,11.01
2022-10-28T04:57:32.981Z,10.95
2022-10-28T05:00:00.090Z,10.93
2022-10-28T05:02:27.268Z,11.02
2022-10-28T05:04:54.520Z,11.10
2022-10-28T05:07:23.562Z,11.19
2022-10-28T05:09:50.864Z,11.16
2022-10-28T05:12:18.040Z,11.17
2022-10-28T05:14:45.962Z,11.10
2022-10-28T05:17:14.547Z,10.97
2022-10-28T05:19:45.117Z,10.97
2022-10-28T05:22:12.279Z,10.98
2022-10-28T05:24:39.555Z,11.01
2022-10-28T05:27:06.786Z,10.95
2022-10-28T05:29:33.953Z,10.89
2022-10-28T05:32:01.291Z,10.86
2022-10-28T05:34:28.547Z,10.88
2022-10-28T05:36:55.779Z,10.88
2022-10-28T05:39:22.937Z,10.85
2022-10-28T05:41:50.076Z,10.86
2022-10-28T05:44:17.216Z,10.88
2022-10-28T05:46:44.416Z,10.86
2022-10-28T05:49:11.649Z,10.88
2022-10-28T05:51:38.921Z,10.88
2022-10-28T05:54:06.353Z,10.84
2022-10-28T05:56:33.628Z,10.83
2022-10-28T05:59:00.869Z,10.77
2022-10-28T06:01:28.134Z,10.74
2022-10-28T06:03:55.389Z,10.74
2022-10-28T06:06:22.500Z,10.75
2022-10-28T06:08:49.640Z,10.84
2022-10-28T06:11:15.266Z,10.92
2022-10-28T06:13:42.425Z,10.97
2022-10-28T06:16:09.741Z,11.02
2022-10-28T06:18:37.127Z,11.05
2022-10-28T06:21:04.665Z,11.08
2022-10-28T06:23:31.886Z,11.11
2022-10-28T06:26:02.339Z,11.14
2022-10-28T06:28:30.600Z,11.16
2022-10-28T06:31:07.699Z,11.14
2022-10-28T06:33:35.093Z,11.14
2022-10-28T06:36:02.794Z,11.20
2022-10-28T06:38:30.110Z,11.30
2022-10-28T06:40:58.085Z,11.45
2022-10-28T06:43:25.810Z,11.53
2022-10-28T06:45:55.522Z,11.57
2022-10-28T06:48:24.665Z,11.63
2022-10-28T06:50:55.039Z,11.78
2022-10-28T06:53:22.683Z,11.87
2022-10-28T06:55:58.183Z,11.98
2022-10-28T06:58:26.108Z,12.05
2022-10-28T07:00:53.833Z,12.13
2022-10-28T07:03:21.980Z,12.19
2022-10-28T07:05:51.408Z,12.29
2022-10-28T07:08:18.773Z,12.40
2022-10-28T07:10:55.407Z,12.48
2022-10-28T07:13:24.302Z,12.65
2022-10-28T07:15:58.137Z,12.76
2022-10-28T07:18:29.003Z,12.88
2022-10-28T07:21:01.747Z,12.98
2022-10-28T07:23:34.141Z,13.10
2022-10-28T07:26:01.597Z,13.19
2022-10-28T07:28:28.942Z,13.28
2022-10-28T07:31:01.865Z,13.36
2022-10-28T07:33:29.249Z,13.44
2022-10-28T07:35:56.692Z,13.53
2022-10-28T07:38:24.019Z,13.67
2022-10-28T07:40:51.178Z,13.79
2022-10-28T07:43:18.391Z,13.90
2022-10-28T07:45:45.676Z,13.98
2022-10-28T07:48:13.178Z,14.14
2022-10-28T07:50:41.728Z,14.26
2022-10-28T07:53:09.040Z,14.40
2022-10-28T07:55:36.316Z,14.57
2022-10-28T07:58:03.580Z,14.72
2022-10-28T08:00:32.055Z,14.85
2022-10-28T08:02:59.274Z,14.95
2022-10-28T08:05:26.455Z,15.04
2022-10-28T08:07:53.834Z,15.17
2022-10-28T08:10:21.162Z,15.22
2022-10-28T08:12:48.366Z,15.24
2022-10-28T08:15:16.711Z,15.24
2022-10-28T08:17:43.902Z,15.27
2022-10-28T08:20:11.275Z,15.35
2022-10-28T08:22:38.417Z,15.44
2022-10-28T08:25:06.021Z,15.52
2022-10-28T08:27:33.277Z,15.63
2022-10-28T08:30:00.510Z,15.72
2022-10-28T08:32:27.828Z,15.77
2022-10-28T08:34:54.967Z,15.86
2022-10-28T08:37:22.288Z,15.95
2022-10-28T08:39:49.596Z,16.05
2022-10-28T08:42:58.896Z,16.08
2022-10-28T08:45:45.951Z,16.16
2022-10-28T08:48:35.849Z,16.40
2022-10-28T08:51:42.163Z,16.54
2022-10-28T08:54:22.912Z,16.67
2022-10-28T08:56:54.871Z,16.69
2022-10-28T08:59:35.186Z,16.64
2022-10-28T09:02:29.247Z,16.79
2022-10-28T09:05:14.858Z,16.83
2022-10-28T09:07:42.225Z,16.94
2022-10-28T09:10:17.898Z,17.00
2022-10-28T09:13:17.029Z,16.99
2022-10-28T09:16:28.696Z,17.02
2022-10-28T09:19:40.301Z,16.96
2022-10-28T09:22:22.847Z,17.16
2022-10-28T09:25:17.848Z,17.19
2022-10-28T09:28:18.854Z,17.32
2022-10-28T09:31:25.752Z,17.41
2022-10-28T09:34:28.276Z,17.53
2022-10-28T09:37:14.337Z,17.54
2022-10-28T09:39:54.122Z,17.80
2022-10-28T09:45:24.071Z,17.95
2022-10-28T09:48:37.929Z,17.98
2022-10-28T09:51:05.857Z,17.93
2022-10-28T09:53:56.022Z,18.16
2022-10-28T09:56:24.787Z,18.16
2022-10-28T09:58:54.611Z,18.30
2022-10-28T10:01:22.487Z,18.43
2022-10-28T10:03:51.901Z,18.47
2022-10-28T10:06:38.855Z,18.62
2022-10-28T10:09:06.137Z,18.61
2022-10-28T10:11:47.171Z,18.75
2022-10-28T10:14:39.981Z,18.81
2022-10-28T10:17:20.001Z,18.80
2022-10-28T10:20:20.588Z,19.49
2022-10-28T10:22:49.951Z,19.42
2022-10-28T10:25:20.084Z,19.71
2022-10-28T10:28:14.771Z,20.67
2022-10-28T10:30:51.498Z,21.31
2022-10-28T10:33:36.450Z,20.37
2022-10-28T10:36:13.557Z,20.07
2022-10-28T10:39:03.466Z,20.80
2022-10-28T10:41:41.785Z,21.14
2022-10-28T10:44:32.783Z,21.53
2022-10-28T10:47:06.050Z,21.10
2022-10-28T10:49:35.715Z,21.10
2022-10-28T10:52:14.934Z,21.20
2022-10-28T10:55:01.773Z,21.50
2022-10-28T10:57:29.706Z,21.61
2022-10-28T10:59:57.967Z,21.65
2022-10-28T11:02:35.026Z,21.53
2022-10-28T11:05:09.510Z,21.06
2022-10-28T11:07:40.492Z,20.97
2022-10-28T11:10:28.444Z,20.99
2022-10-28T11:13:01.469Z,21.14
2022-10-28T11:15:31.587Z,20.55
2022-10-28T11:18:21.392Z,20.60
2022-10-28T11:21:43.780Z,20.93
2022-10-28T11:24:34.749Z,21.22
2022-10-28T11:27:57.596Z,20.89
2022-10-28T11:31:32.021Z,20.58
2022-10-28T11:34:52.677Z,20.92
2022-10-28T11:37:52.257Z,20.61
2022-10-28T11:41:00.798Z,20.80
2022-10-28T11:43:59.691Z,20.66
2022-10-28T11:47:28.186Z,20.57
2022-10-28T11:50:21.538Z,20.59
2022-10-28T11:53:30.505Z,20.86
2022-10-28T11:56:49.466Z,20.72
2022-10-28T11:59:58.980Z,20.70
2022-10-28T12:03:19.877Z,20.85
2022-10-28T12:06:17.080Z,20.70
2022-10-28T12:09:17.584Z,20.59
2022-10-28T12:12:22.091Z,20.66
2022-10-28T12:15:14.731Z,20.80
2022-10-28T12:18:11.989Z,20.89
2022-10-28T12:21:05.631Z,21.04
2022-10-28T12:23:38.219Z,20.83
2022-10-28T12:26:11.996Z,20.78
2022-10-28T12:28:55.642Z,20.98
2022-10-28T12:31:47.909Z,20.98
2022-10-28T12:34:25.077Z,21.20
2022-10-28T12:37:12.235Z,21.31
2022-10-28T12:40:07.447Z,21.35
2022-10-28T12:42:43.738Z,21.26
2022-10-28T12:45:17.783Z,21.09
2022-10-28T12:48:22.248Z,21.15
2022-10-28T12:51:10.989Z,21.42
2022-10-28T12:54:05.791Z,21.60
2022-10-28T12:56:50.692Z,21.60
2022-10-28T12:59:34.966Z,21.89
2022-10-28T13:02:05.550Z,21.77
2022-10-28T13:04:33.027Z,21.81
2022-10-28T13:07:27.646Z,21.49
2022-10-28T13:10:26.913Z,21.61
2022-10-28T13:13:57.379Z,21.32
2022-10-28T13:17:34.282Z,21.25
2022-10-28T13:20:22.747Z,21.19
2022-10-28T13:23:14.545Z,21.03
2022-10-28T13:26:04.126Z,20.98
2022-10-28T13:28:40.684Z,20.98
2022-10-28T13:31:08.960Z,20.98
2022-10-28T13:33:38.544Z,21.02
2022-10-28T13:36:28.109Z,21.09
2022-10-28T13:39:03.680Z,21.17
2022-10-28T13:41:40.895Z,21.27
2022-10-28T13:44:10.419Z,21.26
2022-10-28T13:46:59.410Z,21.36
2022-10-28T13:49:28.607Z,21.37
2022-10-28T13:52:21.292Z,21.57
2022-10-28T13:54:49.286Z,21.73
2022-10-28T13:57:35.143Z,21.70
2022-10-28T14:00:25.655Z,21.64
2022-10-28T14:03:26.308Z,21.66
2022-10-28T14:06:00.801Z,21.68
2022-10-28T14:08:38.571Z,21.74
2022-10-28T14:11:22.735Z,21.79
2022-10-28T14:13:55.823Z,21.78
2022-10-28T14:16:37.796Z,21.62
2022-10-28T14:19:19.980Z,21.79
2022-10-28T14:22:08.403Z,21.84
2022-10-28T14:24:44.699Z,21.99
2022-10-28T14:27:40.511Z,22.03
2022-10-28T14:30:21.285Z,22.15
2022-10-28T14:33:01.987Z,22.63
2022-10-28T14:35:42.512Z,22.80
2022-10-28T14:38:49.831Z,23.75
2022-10-28T14:41:56.014Z,24.62
2022-10-28T14:45:07.612Z,24.93
2022-10-28T14:47:56.027Z,25.75
2022-10-28T14:50:52.527Z,26.63
2022-10-28T14:53:34.136Z,25.98
2022-10-28T14:56:10.352Z,26.11
2022-10-28T14:58:42.222Z,25.64
2022-10-28T15:01:18.768Z,25.98
2022-10-28T15:04:01.833Z,26.09
2022-10-28T15:06:42.953Z,25.99
2022-10-28T15:09:23.121Z,26.14
2022-10-28T15:12:06.335Z,25.53
2022-10-28T15:14:52.157Z,25.62
2022-10-28T15:17:29.103Z,25.81
2022-10-28T15:20:00.327Z,25.38
2022-10-28T15:22:33.195Z,25.74
2022-10-28T15:25:10.511Z,25.13
2022-10-28T15:27:42.091Z,24.96
2022-10-28T15:30:23.643Z,24.66
2022-10-28T15:32:53.020Z,24.45
2022-10-28T15:35:35.503Z,24.27
2022-10-28T15:38:29.287Z,24.58
2022-10-28T15:40:57.473Z,24.75
2022-10-28T15:43:30.720Z,24.27
2022-10-28T15:46:16.318Z,23.31
2022-10-28T15:48:43.387Z,22.55
2022-10-28T15:51:19.582Z,22.06
2022-10-28T15:53:53.907Z,21.64
2022-10-28T15:56:27.883Z,21.40
2022-10-28T15:59:07.209Z,21.18
2022-10-28T16:01:39.879Z,21.16
2022-10-28T16:04:39.354Z,20.87
2022-10-28T16:07:10.124Z,20.56
2022-10-28T16:09:48.791Z,20.14
2022-10-28T16:12:21.446Z,19.92
2022-10-28T16:15:00.686Z,19.61
2022-10-28T16:17:36.210Z,19.31
2022-10-28T16:20:18.467Z,19.04
2022-10-28T16:22:47.170Z,18.83
2022-10-28T16:25:21.702Z,18.68
2022-10-28T16:27:50.715Z,18.57
2022-10-28T16:30:18.454Z,18.42
2022-10-28T16:32:49.869Z,18.33
2022-10-28T16:35:20.508Z,18.19
2022-10-28T16:37:53.725Z,18.09
2022-10-28T16:40:50.841Z,17.99
2022-10-28T16:43:20.022Z,17.87
2022-10-28T16:45:49.636Z,17.77
2022-10-28T16:48:19.366Z,17.68
2022-10-28T16:50:54.732Z,17.58
2022-10-28T16:53:22.260Z,17.49
2022-10-28T16:55:49.715Z,17.39
2022-10-28T16:58:19.569Z,17.28
2022-10-28T17:00:49.057Z,17.16
2022-10-28T17:03:16.270Z,17.11
2022-10-28T17:05:43.985Z,17.04
2022-10-28T17:08:12.187Z,16.96
2022-10-28T17:10:41.751Z,16.87
2022-10-28T17:13:14.763Z,16.85
2022-10-28T17:15:45.521Z,16.83
2022-10-28T17:18:15.025Z,16.72
2022-10-28T17:20:42.443Z,16.66
2022-10-28T17:23:09.573Z,16.61
2022-10-28T17:25:36.852Z,16.53
2022-10-28T17:28:04.430Z,16.47
2022-10-28T17:30:31.752Z,16.42
2022-10-28T17:32:59.039Z,16.31
2022-10-28T17:35:27.224Z,16.22
2022-10-28T17:37:54.564Z,16.15
2022-10-28T17:40:21.971Z,16.05
2022-10-28T17:42:49.107Z,16.01
2022-10-28T17:45:19.431Z,15.99
2022-10-28T17:47:49.712Z,15.93
2022-10-28T17:50:17.228Z,15.84
2022-10-28T17:52:44.385Z,15.81
2022-10-28T17:55:11.694Z,15.75
2022-10-28T17:57:38.886Z,15.67
2022-10-28T18:00:07.397Z,15.60
2022-10-28T18:02:40.151Z,15.57
2022-10-28T18:05:08.221Z,15.52
2022-10-28T18:07:35.488Z,15.46
2022-10-28T18:10:02.666Z,15.45
2022-10-28T18:12:29.910Z,15.40
2022-10-28T18:14:57.121Z,15.33
2022-10-28T18:17:24.300Z,15.25
2022-10-28T18:19:51.515Z,15.16
2022-10-28T18:22:18.714Z,15.13
2022-10-28T18:24:45.937Z,15.06
2022-10-28T18:27:13.073Z,15.01
2022-10-28T18:29:40.236Z,14.98
2022-10-28T18:32:07.366Z,14.94
2022-10-28T18:34:34.607Z,14.99
2022-10-28T18:37:04.062Z,14.95
2022-10-28T18:39:31.271Z,14.87
2022-10-28T18:41:58.435Z,14.88
2022-10-28T18:44:31.653Z,14.94
2022-10-28T18:46:59.312Z,14.87
2022-10-28T18:49:26.614Z,14.80
2022-10-28T18:51:53.823Z,14.82
2022-10-28T18:54:20.949Z,14.78
2022-10-28T18:56:49.166Z,14.73
2022-10-28T18:59:17.703Z,14.67
2022-10-28T19:01:46.817Z,14.60
2022-10-28T19:04:15.097Z,14.56
2022-10-28T19:06:42.511Z,14.56
2022-10-28T19:09:09.770Z,14.54
2022-10-28T19:11:36.952Z,14.55
2022-10-28T19:14:06.370Z,14.61
2022-10-28T19:16:34.668Z,14.69
2022-10-28T19:19:04.679Z,14.69
2022-10-28T19:21:32.734Z,14.63
2022-10-28T19:24:00.127Z,14.62
2022-10-28T19:26:27.884Z,14.60
2022-10-28T19:28:55.283Z,14.55
2022-10-28T19:31:26.427Z,14.50
2022-10-28T19:33:55.059Z,14.46
2022-10-28T19:36:29.479Z,14.41
2022-10-28T19:38:58.225Z,14.34
2022-10-28T19:41:30.244Z,14.31
2022-10-28T19:44:02.847Z,14.29
2022-10-28T19:46:35.575Z,14.24
2022-10-28T19:49:06.267Z,14.20
2022-10-28T19:51:38.857Z,14.17
2022-10-28T19:54:12.411Z,14.05
2022-10-28T19:56:40.610Z,13.99
2022-10-28T19:59:07.851Z,13.95
2022-10-28T20:01:38.684Z,13.97
2022-10-28T20:04:08.502Z,13.85
2022-10-28T20:06:39.095Z,13.81
2022-10-28T20:09:07.215Z,13.80
2022-10-28T20:11:38.070Z,13.77
2022-10-28T20:14:12.457Z,13.80
2022-10-28T20:16:42.697Z,13.77
2022-10-28T20:19:10.584Z,13.70
2022-10-28T20:21:38.889Z,13.68
2022-10-28T20:24:08.010Z,13.66
2022-10-28T20:26:38.467Z,13.64
2022-10-28T20:29:09.932Z,13.66
2022-10-28T20:31:38.902Z,13.59
2022-10-28T20:34:06.786Z,13.64
2022-10-28T20:36:40.483Z,13.60
2022-10-28T20:39:20.818Z,13.61
2022-10-28T20:41:51.175Z,13.52
2022-10-28T20:44:18.614Z,13.41
2022-10-28T20:46:47.776Z,13.38
2022-10-28T20:49:15.850Z,13.38
2022-10-28T20:51:43.186Z,13.31
2022-10-28T20:54:10.463Z,13.30
2022-10-28T20:56:40.344Z,13.34
2022-10-28T20:59:08.101Z,13.24
2022-10-28T21:01:39.567Z,13.17
2022-10-28T21:04:10.981Z,13.12
2022-10-28T21:06:39.545Z,13.02
2022-10-28T21:09:07.771Z,12.94
2022-10-28T21:11:35.190Z,12.88
2022-10-28T21:14:02.639Z,12.83
2022-10-28T21:16:30.947Z,12.84
2022-10-28T21:19:01.688Z,12.90
2022-10-28T21:21:30.007Z,12.94
2022-10-28T21:23:57.263Z,13.00
2022-10-28T21:26:25.484Z,13.05
2022-10-28T21:28:53.345Z,13.10
2022-10-28T21:31:21.962Z,13.07
2022-10-28T21:36:22.792Z,12.75
2022-10-28T21:38:55.671Z,12.67
2022-10-28T21:41:24.930Z,12.72
2022-10-28T21:43:54.232Z,12.73
2022-10-28T21:46:23.172Z,12.72
2022-10-28T21:48:50.488Z,12.66
2022-10-28T21:51:18.667Z,12.61
2022-10-28T21:53:45.996Z,12.55
2022-10-28T21:56:18.547Z,12.55
2022-10-28T21:58:49.063Z,12.46
2022-10-28T22:01:23.576Z,12.54
2022-10-28T22:03:54.505Z,12.62
2022-10-28T22:06:22.470Z,12.55
2022-10-28T22:08:52.601Z,12.50
2022-10-28T22:11:23.586Z,12.42
2022-10-28T22:14:01.100Z,12.39
2022-10-28T22:16:31.794Z,12.36
2022-10-28T22:19:02.851Z,12.44
2022-10-28T22:21:33.706Z,12.47
2022-10-28T22:24:01.091Z,12.43
2022-10-28T22:26:30.544Z,12.34
2022-10-28T22:28:57.888Z,12.31
2022-10-28T22:31:33.466Z,12.30
2022-10-28T22:34:01.387Z,12.38
2022-10-28T22:36:30.183Z,12.46
2022-10-28T22:38:57.776Z,12.50
2022-10-28T22:41:33.883Z,12.42
2022-10-28T22:44:02.952Z,12.38
2022-10-28T22:46:33.713Z,12.39
2022-10-28T22:49:00.900Z,12.40
2022-10-28T22:51:28.101Z,12.32
2022-10-28T22:53:55.380Z,12.33
2022-10-28T22:56:26.135Z,12.24
2022-10-28T22:58:58.191Z,12.25
2022-10-28T23:01:28.338Z,12.24
2022-10-28T23:03:56.430Z,12.25
2022-10-28T23:06:27.154Z,12.25
2022-10-28T23:08:55.111Z,12.27
2022-10-28T23:11:23.275Z,12.12
2022-10-28T23:13:52.787Z,12.04
2022-10-28T23:16:21.595Z,12.06
2022-10-28T23:18:49.284Z,12.09
2022-10-28T23:21:27.667Z,12.19
2022-10-28T23:23:59.973Z,12.20
2022-10-28T23:26:29.832Z,12.16
2022-10-28T23:28:59.805Z,12.10
2022-10-28T23:31:28.323Z,12.04
2022-10-28T23:33:56.432Z,12.03
2022-10-28T23:36:23.722Z,12.04
2022-10-28T23:38:51.017Z,12.02
2022-10-28T23:41:19.346Z,11.96
2022-10-28T23:43:48.596Z,11.92
2022-10-28T23:46:16.203Z,11.87
2022-10-28T23:48:43.466Z,11.78
2022-10-28T23:51:10.754Z,11.70
2022-10-28T23:53:38.030Z,11.65
2022-10-28T23:56:06.165Z,11.54
2022-10-28T23:58:33.286Z,11.53
